sensor_id;sensor_type;location;lat;lon;timestamp;P1;durP1;ratioP1;P2;durP2;ratioP2
7239;SDS011;3661;53.288;10.458;2023-12-20T00:01:34;928.70;;;878.25;;
7239;SDS011;3661;53.288;10.458;2023-12-20T00:04:07;903.35;;;853.58;;
7239;SDS011;3661;53.288;10.458;2023-12-20T00:06:39;919.95;;;869.13;;
7239;SDS011;3661;53.288;10.458;2023-12-20T00:09:12;921.88;;;870.90;;
7239;SDS011;3661;53.288;10.458;2023-12-20T00:11:44;902.65;;;852.85;;
7239;SDS011;3661;53.288;10.458;2023-12-20T00:14:16;910.53;;;860.53;;
7239;SDS011;3661;53.288;10.458;2023-12-20T00:16:48;908.85;;;858.38;;
7239;SDS011;3661;53.288;10.458;2023-12-20T00:19:20;905.30;;;855.10;;
7239;SDS011;3661;53.288;10.458;2023-12-20T00:21:52;903.35;;;853.33;;
7239;SDS011;3661;53.288;10.458;2023-12-20T00:24:26;898.83;;;848.95;;
7239;SDS011;3661;53.288;10.458;2023-12-20T00:26:58;899.40;;;849.35;;
7239;SDS011;3661;53.288;10.458;2023-12-20T00:29:30;904.17;;;853.97;;
7239;SDS011;3661;53.288;10.458;2023-12-20T00:32:02;897.83;;;847.13;;
7239;SDS011;3661;53.288;10.458;2023-12-20T00:34:34;885.40;;;835.40;;
7239;SDS011;3661;53.288;10.458;2023-12-20T00:37:06;889.13;;;839.57;;
7239;SDS011;3661;53.288;10.458;2023-12-20T00:39:41;903.05;;;853.40;;
7239;SDS011;3661;53.288;10.458;2023-12-20T00:42:14;910.22;;;860.17;;
7239;SDS011;3661;53.288;10.458;2023-12-20T00:44:46;896.00;;;846.17;;
7239;SDS011;3661;53.288;10.458;2023-12-20T00:47:18;902.55;;;852.25;;
7239;SDS011;3661;53.288;10.458;2023-12-20T00:49:50;896.38;;;846.47;;
7239;SDS011;3661;53.288;10.458;2023-12-20T00:52:22;881.15;;;831.50;;
7239;SDS011;3661;53.288;10.458;2023-12-20T00:54:56;869.58;;;820.50;;
7239;SDS011;3661;53.288;10.458;2023-12-20T00:57:30;890.20;;;841.53;;
7239;SDS011;3661;53.288;10.458;2023-12-20T01:00:02;894.28;;;844.15;;
7239;SDS011;3661;53.288;10.458;2023-12-20T01:02:35;893.63;;;843.88;;
7239;SDS011;3661;53.288;10.458;2023-12-20T01:05:07;872.22;;;823.53;;
7239;SDS011;3661;53.288;10.458;2023-12-20T01:07:39;871.80;;;822.70;;
7239;SDS011;3661;53.288;10.458;2023-12-20T01:10:13;854.80;;;806.50;;
7239;SDS011;3661;53.288;10.458;2023-12-20T01:12:45;878.58;;;829.92;;
7239;SDS011;3661;53.288;10.458;2023-12-20T01:15:17;874.85;;;825.13;;
7239;SDS011;3661;53.288;10.458;2023-12-20T01:17:49;863.20;;;815.08;;
7239;SDS011;3661;53.288;10.458;2023-12-20T01:20:21;874.10;;;825.92;;
7239;SDS011;3661;53.288;10.458;2023-12-20T01:22:53;869.35;;;821.17;;
7239;SDS011;3661;53.288;10.458;2023-12-20T01:25:27;847.80;;;799.13;;
7239;SDS011;3661;53.288;10.458;2023-12-20T01:27:59;857.50;;;808.97;;
7239;SDS011;3661;53.288;10.458;2023-12-20T01:30:32;865.30;;;815.88;;
7239;SDS011;3661;53.288;10.458;2023-12-20T01:33:04;861.33;;;812.58;;
7239;SDS011;3661;53.288;10.458;2023-12-20T01:35:36;847.05;;;798.38;;
7239;SDS011;3661;53.288;10.458;2023-12-20T01:38:09;866.35;;;817.25;;
7239;SDS011;3661;53.288;10.458;2023-12-20T01:40:43;856.28;;;807.33;;
7239;SDS011;3661;53.288;10.458;2023-12-20T01:43:15;843.30;;;794.85;;
7239;SDS011;3661;53.288;10.458;2023-12-20T01:45:47;835.28;;;786.47;;
7239;SDS011;3661;53.288;10.458;2023-12-20T01:48:19;852.67;;;804.40;;
7239;SDS011;3661;53.288;10.458;2023-12-20T01:50:52;864.15;;;814.80;;
7239;SDS011;3661;53.288;10.458;2023-12-20T01:53:25;843.08;;;794.53;;
7239;SDS011;3661;53.288;10.458;2023-12-20T01:56:00;850.23;;;801.27;;
7239;SDS011;3661;53.288;10.458;2023-12-20T01:58:32;832.83;;;783.70;;
7239;SDS011;3661;53.288;10.458;2023-12-20T02:01:05;842.28;;;793.13;;
7239;SDS011;3661;53.288;10.458;2023-12-20T02:03:37;851.58;;;802.67;;
7239;SDS011;3661;53.288;10.458;2023-12-20T02:06:10;846.40;;;796.47;;
7239;SDS011;3661;53.288;10.458;2023-12-20T02:08:42;834.65;;;785.42;;
7239;SDS011;3661;53.288;10.458;2023-12-20T02:11:16;842.08;;;792.70;;
7239;SDS011;3661;53.288;10.458;2023-12-20T02:13:48;840.33;;;791.75;;
7239;SDS011;3661;53.288;10.458;2023-12-20T02:16:20;847.80;;;799.30;;
7239;SDS011;3661;53.288;10.458;2023-12-20T02:18:53;822.47;;;774.47;;
7239;SDS011;3661;53.288;10.458;2023-12-20T02:21:31;828.95;;;779.95;;
7239;SDS011;3661;53.288;10.458;2023-12-20T02:24:04;823.10;;;774.75;;
7239;SDS011;3661;53.288;10.458;2023-12-20T02:26:36;808.35;;;760.40;;
7239;SDS011;3661;53.288;10.458;2023-12-20T02:29:10;826.03;;;778.37;;
7239;SDS011;3661;53.288;10.458;2023-12-20T02:31:42;798.20;;;750.80;;
7239;SDS011;3661;53.288;10.458;2023-12-20T02:34:14;811.80;;;763.90;;
7239;SDS011;3661;53.288;10.458;2023-12-20T02:36:47;804.08;;;755.83;;
7239;SDS011;3661;53.288;10.458;2023-12-20T02:39:21;803.90;;;755.60;;
7239;SDS011;3661;53.288;10.458;2023-12-20T02:41:53;827.60;;;779.17;;
7239;SDS011;3661;53.288;10.458;2023-12-20T02:44:27;812.88;;;765.17;;
7239;SDS011;3661;53.288;10.458;2023-12-20T02:46:59;816.25;;;767.40;;
7239;SDS011;3661;53.288;10.458;2023-12-20T02:49:31;821.25;;;772.97;;
7239;SDS011;3661;53.288;10.458;2023-12-20T02:52:04;805.55;;;756.90;;
7239;SDS011;3661;53.288;10.458;2023-12-20T02:54:37;808.45;;;760.00;;
7239;SDS011;3661;53.288;10.458;2023-12-20T02:57:09;802.00;;;753.20;;
7239;SDS011;3661;53.288;10.458;2023-12-20T02:59:41;806.83;;;758.22;;
7239;SDS011;3661;53.288;10.458;2023-12-20T03:02:14;806.05;;;757.85;;
7239;SDS011;3661;53.288;10.458;2023-12-20T03:04:46;824.33;;;776.45;;
7239;SDS011;3661;53.288;10.458;2023-12-20T03:07:20;790.00;;;742.47;;
7239;SDS011;3661;53.288;10.458;2023-12-20T03:09:52;809.05;;;760.38;;
7239;SDS011;3661;53.288;10.458;2023-12-20T03:12:26;794.17;;;746.47;;
7239;SDS011;3661;53.288;10.458;2023-12-20T03:14:59;813.67;;;766.03;;
7239;SDS011;3661;53.288;10.458;2023-12-20T03:17:33;793.20;;;745.00;;
7239;SDS011;3661;53.288;10.458;2023-12-20T03:20:06;803.63;;;755.60;;
7239;SDS011;3661;53.288;10.458;2023-12-20T03:22:40;808.63;;;760.58;;
7239;SDS011;3661;53.288;10.458;2023-12-20T03:25:12;775.28;;;727.88;;
7239;SDS011;3661;53.288;10.458;2023-12-20T03:27:44;794.90;;;746.70;;
7239;SDS011;3661;53.288;10.458;2023-12-20T03:30:16;804.53;;;755.83;;
7239;SDS011;3661;53.288;10.458;2023-12-20T03:32:48;799.75;;;750.70;;
7239;SDS011;3661;53.288;10.458;2023-12-20T03:35:20;800.50;;;751.42;;
7239;SDS011;3661;53.288;10.458;2023-12-20T03:37:54;803.25;;;754.45;;
7239;SDS011;3661;53.288;10.458;2023-12-20T03:40:27;817.72;;;769.13;;
7239;SDS011;3661;53.288;10.458;2023-12-20T03:42:59;795.72;;;746.28;;
7239;SDS011;3661;53.288;10.458;2023-12-20T03:45:31;782.27;;;733.40;;
7239;SDS011;3661;53.288;10.458;2023-12-20T03:48:03;796.92;;;748.88;;
7239;SDS011;3661;53.288;10.458;2023-12-20T03:50:36;791.70;;;743.10;;
7239;SDS011;3661;53.288;10.458;2023-12-20T03:53:09;793.80;;;744.55;;
7239;SDS011;3661;53.288;10.458;2023-12-20T03:55:41;793.90;;;744.90;;
7239;SDS011;3661;53.288;10.458;2023-12-20T03:58:22;753.03;;;704.53;;
7239;SDS011;3661;53.288;10.458;2023-12-20T04:00:54;766.35;;;717.20;;
7239;SDS011;3661;53.288;10.458;2023-12-20T04:03:27;807.88;;;759.08;;
7239;SDS011;3661;53.288;10.458;2023-12-20T04:05:59;797.15;;;747.92;;
7239;SDS011;3661;53.288;10.458;2023-12-20T04:08:33;785.08;;;736.63;;
7239;SDS011;3661;53.288;10.458;2023-12-20T04:11:05;793.33;;;743.88;;
7239;SDS011;3661;53.288;10.458;2023-12-20T04:13:37;786.03;;;738.05;;
7239;SDS011;3661;53.288;10.458;2023-12-20T04:16:09;786.00;;;737.50;;
7239;SDS011;3661;53.288;10.458;2023-12-20T04:18:41;774.40;;;725.20;;
7239;SDS011;3661;53.288;10.458;2023-12-20T04:21:13;803.10;;;753.65;;
7239;SDS011;3661;53.288;10.458;2023-12-20T04:23:46;797.95;;;748.35;;
7239;SDS011;3661;53.288;10.458;2023-12-20T04:26:18;798.90;;;749.63;;
7239;SDS011;3661;53.288;10.458;2023-12-20T04:28:50;791.10;;;741.60;;
7239;SDS011;3661;53.288;10.458;2023-12-20T04:31:24;787.33;;;737.90;;
7239;SDS011;3661;53.288;10.458;2023-12-20T04:33:56;807.90;;;759.05;;
7239;SDS011;3661;53.288;10.458;2023-12-20T04:36:28;782.97;;;734.17;;
7239;SDS011;3661;53.288;10.458;2023-12-20T04:39:02;814.95;;;766.22;;
7239;SDS011;3661;53.288;10.458;2023-12-20T04:41:34;807.33;;;757.78;;
7239;SDS011;3661;53.288;10.458;2023-12-20T04:44:06;802.70;;;753.85;;
7239;SDS011;3661;53.288;10.458;2023-12-20T04:46:38;810.38;;;761.78;;
7239;SDS011;3661;53.288;10.458;2023-12-20T04:49:10;799.38;;;749.78;;
7239;SDS011;3661;53.288;10.458;2023-12-20T04:51:42;798.05;;;748.85;;
7239;SDS011;3661;53.288;10.458;2023-12-20T04:54:16;817.75;;;769.17;;
7239;SDS011;3661;53.288;10.458;2023-12-20T04:56:49;800.60;;;752.00;;
7239;SDS011;3661;53.288;10.458;2023-12-20T04:59:21;772.33;;;723.65;;
7239;SDS011;3661;53.288;10.458;2023-12-20T05:01:53;786.55;;;737.97;;
7239;SDS011;3661;53.288;10.458;2023-12-20T05:04:25;802.88;;;753.22;;
7239;SDS011;3661;53.288;10.458;2023-12-20T05:06:57;804.17;;;754.50;;
7239;SDS011;3661;53.288;10.458;2023-12-20T05:09:30;821.42;;;771.83;;
7239;SDS011;3661;53.288;10.458;2023-12-20T05:12:03;809.08;;;759.63;;
7239;SDS011;3661;53.288;10.458;2023-12-20T05:14:36;825.35;;;775.63;;
7239;SDS011;3661;53.288;10.458;2023-12-20T05:17:08;801.00;;;751.38;;
7239;SDS011;3661;53.288;10.458;2023-12-20T05:19:40;818.10;;;768.58;;
7239;SDS011;3661;53.288;10.458;2023-12-20T05:22:12;809.50;;;759.95;;
7239;SDS011;3661;53.288;10.458;2023-12-20T05:24:46;802.63;;;753.35;;
7239;SDS011;3661;53.288;10.458;2023-12-20T05:27:18;826.65;;;777.38;;
7239;SDS011;3661;53.288;10.458;2023-12-20T05:29:50;797.97;;;748.50;;
7239;SDS011;3661;53.288;10.458;2023-12-20T05:32:22;813.88;;;763.95;;
7239;SDS011;3661;53.288;10.458;2023-12-20T05:34:55;837.67;;;787.90;;
7239;SDS011;3661;53.288;10.458;2023-12-20T05:37:27;808.58;;;759.50;;
7239;SDS011;3661;53.288;10.458;2023-12-20T05:40:00;806.83;;;757.70;;
7239;SDS011;3661;53.288;10.458;2023-12-20T05:42:32;791.75;;;743.20;;
7239;SDS011;3661;53.288;10.458;2023-12-20T05:45:05;815.38;;;766.28;;
7239;SDS011;3661;53.288;10.458;2023-12-20T05:47:37;828.83;;;779.17;;
7239;SDS011;3661;53.288;10.458;2023-12-20T05:50:09;809.27;;;759.87;;
7239;SDS011;3661;53.288;10.458;2023-12-20T05:52:42;805.22;;;755.55;;
7239;SDS011;3661;53.288;10.458;2023-12-20T05:55:15;805.25;;;756.70;;
7239;SDS011;3661;53.288;10.458;2023-12-20T05:57:47;822.20;;;773.03;;
7239;SDS011;3661;53.288;10.458;2023-12-20T06:00:19;806.42;;;756.90;;
7239;SDS011;3661;53.288;10.458;2023-12-20T06:02:51;822.78;;;773.47;;
7239;SDS011;3661;53.288;10.458;2023-12-20T06:05:26;821.45;;;772.50;;
7239;SDS011;3661;53.288;10.458;2023-12-20T06:07:58;825.15;;;775.78;;
7239;SDS011;3661;53.288;10.458;2023-12-20T06:10:34;817.67;;;768.17;;
7239;SDS011;3661;53.288;10.458;2023-12-20T06:13:06;825.90;;;776.05;;
7239;SDS011;3661;53.288;10.458;2023-12-20T06:15:38;826.45;;;776.70;;
7239;SDS011;3661;53.288;10.458;2023-12-20T06:18:11;805.47;;;755.97;;
7239;SDS011;3661;53.288;10.458;2023-12-20T06:20:43;809.43;;;759.63;;
7239;SDS011;3661;53.288;10.458;2023-12-20T06:23:15;845.88;;;795.92;;
7239;SDS011;3661;53.288;10.458;2023-12-20T06:25:49;811.80;;;761.92;;
7239;SDS011;3661;53.288;10.458;2023-12-20T06:28:21;829.47;;;780.03;;
7239;SDS011;3661;53.288;10.458;2023-12-20T06:30:53;831.92;;;782.15;;
7239;SDS011;3661;53.288;10.458;2023-12-20T06:33:25;835.70;;;785.72;;
7239;SDS011;3661;53.288;10.458;2023-12-20T06:35:57;843.90;;;794.70;;
7239;SDS011;3661;53.288;10.458;2023-12-20T06:38:29;845.97;;;797.08;;
7239;SDS011;3661;53.288;10.458;2023-12-20T06:41:02;851.50;;;801.75;;
7239;SDS011;3661;53.288;10.458;2023-12-20T06:43:35;840.88;;;792.15;;
7239;SDS011;3661;53.288;10.458;2023-12-20T06:46:07;837.80;;;788.63;;
7239;SDS011;3661;53.288;10.458;2023-12-20T06:48:39;813.20;;;764.72;;
7239;SDS011;3661;53.288;10.458;2023-12-20T06:51:12;824.73;;;775.43;;
7239;SDS011;3661;53.288;10.458;2023-12-20T06:53:45;847.60;;;798.23;;
7239;SDS011;3661;53.288;10.458;2023-12-20T06:56:18;848.30;;;798.30;;
7239;SDS011;3661;53.288;10.458;2023-12-20T06:58:50;837.27;;;787.33;;
7239;SDS011;3661;53.288;10.458;2023-12-20T07:01:23;825.92;;;776.47;;
7239;SDS011;3661;53.288;10.458;2023-12-20T07:03:55;843.58;;;794.10;;
7239;SDS011;3661;53.288;10.458;2023-12-20T07:06:27;839.03;;;789.00;;
7239;SDS011;3661;53.288;10.458;2023-12-20T07:08:59;847.00;;;797.47;;
7239;SDS011;3661;53.288;10.458;2023-12-20T07:11:32;841.25;;;791.95;;
7239;SDS011;3661;53.288;10.458;2023-12-20T07:14:04;839.63;;;789.70;;
7239;SDS011;3661;53.288;10.458;2023-12-20T07:16:36;852.57;;;803.47;;
7239;SDS011;3661;53.288;10.458;2023-12-20T07:19:08;850.45;;;801.03;;
7239;SDS011;3661;53.288;10.458;2023-12-20T07:21:41;853.55;;;803.03;;
7239;SDS011;3661;53.288;10.458;2023-12-20T07:24:13;842.75;;;793.05;;
7239;SDS011;3661;53.288;10.458;2023-12-20T07:26:46;828.65;;;778.70;;
7239;SDS011;3661;53.288;10.458;2023-12-20T07:29:18;836.53;;;786.90;;
7239;SDS011;3661;53.288;10.458;2023-12-20T07:31:50;835.92;;;786.13;;
7239;SDS011;3661;53.288;10.458;2023-12-20T07:34:24;841.08;;;790.38;;
7239;SDS011;3661;53.288;10.458;2023-12-20T07:36:56;852.97;;;803.33;;
7239;SDS011;3661;53.288;10.458;2023-12-20T07:39:28;856.95;;;807.38;;
7239;SDS011;3661;53.288;10.458;2023-12-20T07:42:01;852.58;;;801.85;;
7239;SDS011;3661;53.288;10.458;2023-12-20T07:44:33;841.53;;;791.88;;
7239;SDS011;3661;53.288;10.458;2023-12-20T07:47:06;851.67;;;801.72;;
7239;SDS011;3661;53.288;10.458;2023-12-20T07:49:38;845.83;;;796.30;;
7239;SDS011;3661;53.288;10.458;2023-12-20T07:52:10;846.40;;;796.03;;
7239;SDS011;3661;53.288;10.458;2023-12-20T07:54:42;859.53;;;808.85;;
7239;SDS011;3661;53.288;10.458;2023-12-20T07:57:16;838.45;;;788.10;;
7239;SDS011;3661;53.288;10.458;2023-12-20T07:59:48;843.78;;;793.00;;
7239;SDS011;3661;53.288;10.458;2023-12-20T08:02:20;841.07;;;790.40;;
7239;SDS011;3661;53.288;10.458;2023-12-20T08:04:52;860.08;;;809.00;;
7239;SDS011;3661;53.288;10.458;2023-12-20T08:07:24;865.00;;;815.45;;
7239;SDS011;3661;53.288;10.458;2023-12-20T08:09:56;856.67;;;806.63;;
7239;SDS011;3661;53.288;10.458;2023-12-20T08:12:30;859.20;;;808.28;;
7239;SDS011;3661;53.288;10.458;2023-12-20T08:15:04;863.55;;;814.05;;
7239;SDS011;3661;53.288;10.458;2023-12-20T08:17:36;853.05;;;802.63;;
7239;SDS011;3661;53.288;10.458;2023-12-20T08:20:08;855.70;;;804.65;;
7239;SDS011;3661;53.288;10.458;2023-12-20T08:22:41;850.25;;;800.45;;
7239;SDS011;3661;53.288;10.458;2023-12-20T08:25:13;844.43;;;794.80;;
7239;SDS011;3661;53.288;10.458;2023-12-20T08:27:47;858.28;;;807.85;;
7239;SDS011;3661;53.288;10.458;2023-12-20T08:30:19;854.83;;;804.03;;
7239;SDS011;3661;53.288;10.458;2023-12-20T08:32:52;858.42;;;808.05;;
7239;SDS011;3661;53.288;10.458;2023-12-20T08:35:26;839.22;;;789.38;;
7239;SDS011;3661;53.288;10.458;2023-12-20T08:37:58;850.13;;;799.93;;
7239;SDS011;3661;53.288;10.458;2023-12-20T08:40:30;855.97;;;805.25;;
7239;SDS011;3661;53.288;10.458;2023-12-20T08:43:04;852.13;;;801.50;;
7239;SDS011;3661;53.288;10.458;2023-12-20T08:45:36;842.88;;;792.05;;
7239;SDS011;3661;53.288;10.458;2023-12-20T08:48:10;846.72;;;796.20;;
7239;SDS011;3661;53.288;10.458;2023-12-20T08:50:42;851.80;;;801.22;;
7239;SDS011;3661;53.288;10.458;2023-12-20T08:53:14;858.92;;;808.70;;
7239;SDS011;3661;53.288;10.458;2023-12-20T08:55:48;851.85;;;800.95;;
7239;SDS011;3661;53.288;10.458;2023-12-20T08:58:21;873.47;;;822.47;;
7239;SDS011;3661;53.288;10.458;2023-12-20T09:00:53;841.45;;;791.33;;
7239;SDS011;3661;53.288;10.458;2023-12-20T09:03:25;862.72;;;811.75;;
7239;SDS011;3661;53.288;10.458;2023-12-20T09:05:57;872.33;;;821.13;;
7239;SDS011;3661;53.288;10.458;2023-12-20T09:08:29;870.72;;;819.97;;
7239;SDS011;3661;53.288;10.458;2023-12-20T09:11:01;881.97;;;830.85;;
7239;SDS011;3661;53.288;10.458;2023-12-20T09:13:35;865.05;;;813.47;;
7239;SDS011;3661;53.288;10.458;2023-12-20T09:16:08;848.45;;;797.88;;
7239;SDS011;3661;53.288;10.458;2023-12-20T09:18:40;867.95;;;817.25;;
7239;SDS011;3661;53.288;10.458;2023-12-20T09:21:12;856.20;;;805.45;;
7239;SDS011;3661;53.288;10.458;2023-12-20T09:23:44;864.60;;;814.20;;
7239;SDS011;3661;53.288;10.458;2023-12-20T09:26:16;852.97;;;803.22;;
7239;SDS011;3661;53.288;10.458;2023-12-20T09:28:49;853.22;;;803.03;;
7239;SDS011;3661;53.288;10.458;2023-12-20T09:31:21;869.05;;;819.30;;
7239;SDS011;3661;53.288;10.458;2023-12-20T09:33:53;887.20;;;836.37;;
7239;SDS011;3661;53.288;10.458;2023-12-20T09:36:25;873.58;;;823.67;;
7239;SDS011;3661;53.288;10.458;2023-12-20T09:38:57;875.40;;;825.17;;
7239;SDS011;3661;53.288;10.458;2023-12-20T09:41:29;887.83;;;837.95;;
7239;SDS011;3661;53.288;10.458;2023-12-20T09:44:08;884.08;;;833.95;;
7239;SDS011;3661;53.288;10.458;2023-12-20T09:46:49;858.55;;;808.15;;
7239;SDS011;3661;53.288;10.458;2023-12-20T09:49:22;873.85;;;823.60;;
7239;SDS011;3661;53.288;10.458;2023-12-20T09:51:54;869.87;;;820.23;;
7239;SDS011;3661;53.288;10.458;2023-12-20T09:54:27;864.13;;;814.47;;
7239;SDS011;3661;53.288;10.458;2023-12-20T09:57:00;872.33;;;823.05;;
7239;SDS011;3661;53.288;10.458;2023-12-20T09:59:34;863.63;;;814.27;;
7239;SDS011;3661;53.288;10.458;2023-12-20T10:02:08;868.60;;;818.85;;
7239;SDS011;3661;53.288;10.458;2023-12-20T10:04:46;861.40;;;812.57;;
7239;SDS011;3661;53.288;10.458;2023-12-20T10:07:19;890.13;;;840.88;;
7239;SDS011;3661;53.288;10.458;2023-12-20T10:09:52;871.57;;;822.27;;
7239;SDS011;3661;53.288;10.458;2023-12-20T10:12:25;886.22;;;835.50;;
7239;SDS011;3661;53.288;10.458;2023-12-20T10:15:00;887.42;;;838.33;;
7239;SDS011;3661;53.288;10.458;2023-12-20T10:17:32;863.20;;;813.63;;
7239;SDS011;3661;53.288;10.458;2023-12-20T10:20:06;867.03;;;818.17;;
7239;SDS011;3661;53.288;10.458;2023-12-20T10:22:40;875.33;;;825.97;;
7239;SDS011;3661;53.288;10.458;2023-12-20T10:25:13;875.33;;;826.22;;
7239;SDS011;3661;53.288;10.458;2023-12-20T10:27:45;865.13;;;816.25;;
7239;SDS011;3661;53.288;10.458;2023-12-20T10:30:18;859.53;;;810.22;;
7239;SDS011;3661;53.288;10.458;2023-12-20T10:32:51;850.70;;;801.83;;
7239;SDS011;3661;53.288;10.458;2023-12-20T10:35:23;871.33;;;822.42;;
7239;SDS011;3661;53.288;10.458;2023-12-20T10:37:56;853.13;;;804.25;;
7239;SDS011;3661;53.288;10.458;2023-12-20T10:40:28;854.07;;;806.03;;
7239;SDS011;3661;53.288;10.458;2023-12-20T10:43:02;858.17;;;809.80;;
7239;SDS011;3661;53.288;10.458;2023-12-20T10:45:36;852.67;;;803.33;;
7239;SDS011;3661;53.288;10.458;2023-12-20T10:48:10;860.78;;;811.33;;
7239;SDS011;3661;53.288;10.458;2023-12-20T10:50:42;870.13;;;821.55;;
7239;SDS011;3661;53.288;10.458;2023-12-20T10:53:15;862.15;;;813.30;;
7239;SDS011;3661;53.288;10.458;2023-12-20T10:55:48;874.53;;;825.03;;
7239;SDS011;3661;53.288;10.458;2023-12-20T10:58:23;874.20;;;824.58;;
7239;SDS011;3661;53.288;10.458;2023-12-20T11:00:59;849.20;;;800.22;;
7239;SDS011;3661;53.288;10.458;2023-12-20T11:03:34;866.03;;;816.83;;
7239;SDS011;3661;53.288;10.458;2023-12-20T11:06:08;862.60;;;813.37;;
7239;SDS011;3661;53.288;10.458;2023-12-20T11:08:47;864.15;;;815.20;;
7239;SDS011;3661;53.288;10.458;2023-12-20T11:11:29;868.67;;;818.75;;
7239;SDS011;3661;53.288;10.458;2023-12-20T11:14:07;868.85;;;820.10;;
7239;SDS011;3661;53.288;10.458;2023-12-20T11:16:47;849.47;;;801.05;;
7239;SDS011;3661;53.288;10.458;2023-12-20T11:19:19;848.97;;;799.57;;
7239;SDS011;3661;53.288;10.458;2023-12-20T11:21:51;869.17;;;820.42;;
7239;SDS011;3661;53.288;10.458;2023-12-20T11:24:23;870.22;;;822.08;;
7239;SDS011;3661;53.288;10.458;2023-12-20T11:26:57;863.85;;;815.35;;
7239;SDS011;3661;53.288;10.458;2023-12-20T11:29:29;848.70;;;800.05;;
7239;SDS011;3661;53.288;10.458;2023-12-20T11:32:04;864.35;;;815.50;;
7239;SDS011;3661;53.288;10.458;2023-12-20T11:35:00;834.57;;;785.67;;
7239;SDS011;3661;53.288;10.458;2023-12-20T11:37:47;854.05;;;805.15;;
7239;SDS011;3661;53.288;10.458;2023-12-20T11:40:20;867.07;;;818.90;;
7239;SDS011;3661;53.288;10.458;2023-12-20T11:42:55;855.25;;;806.00;;
7239;SDS011;3661;53.288;10.458;2023-12-20T11:45:27;847.10;;;798.58;;
7239;SDS011;3661;53.288;10.458;2023-12-20T11:48:01;868.00;;;818.42;;
7239;SDS011;3661;53.288;10.458;2023-12-20T11:50:33;870.17;;;820.88;;
7239;SDS011;3661;53.288;10.458;2023-12-20T11:53:05;861.25;;;811.45;;
7239;SDS011;3661;53.288;10.458;2023-12-20T11:55:37;877.93;;;828.23;;
7239;SDS011;3661;53.288;10.458;2023-12-20T11:58:11;875.03;;;825.30;;
7239;SDS011;3661;53.288;10.458;2023-12-20T12:00:43;860.22;;;810.72;;
7239;SDS011;3661;53.288;10.458;2023-12-20T12:03:16;879.83;;;829.83;;
7239;SDS011;3661;53.288;10.458;2023-12-20T12:05:48;850.47;;;800.80;;
7239;SDS011;3661;53.288;10.458;2023-12-20T12:08:22;863.00;;;813.95;;
7239;SDS011;3661;53.288;10.458;2023-12-20T12:10:54;857.03;;;807.17;;
7239;SDS011;3661;53.288;10.458;2023-12-20T12:13:26;875.67;;;826.33;;
7239;SDS011;3661;53.288;10.458;2023-12-20T12:15:58;862.53;;;813.55;;
7239;SDS011;3661;53.288;10.458;2023-12-20T12:18:32;855.00;;;805.90;;
7239;SDS011;3661;53.288;10.458;2023-12-20T12:21:04;871.50;;;822.30;;
7239;SDS011;3661;53.288;10.458;2023-12-20T12:23:36;865.30;;;815.92;;
7239;SDS011;3661;53.288;10.458;2023-12-20T12:26:08;860.30;;;811.30;;
7239;SDS011;3661;53.288;10.458;2023-12-20T12:28:40;870.55;;;820.55;;
7239;SDS011;3661;53.288;10.458;2023-12-20T12:31:13;871.20;;;821.47;;
7239;SDS011;3661;53.288;10.458;2023-12-20T12:33:48;861.33;;;811.85;;
7239;SDS011;3661;53.288;10.458;2023-12-20T12:36:20;869.92;;;819.65;;
7239;SDS011;3661;53.288;10.458;2023-12-20T12:38:52;888.67;;;838.40;;
7239;SDS011;3661;53.288;10.458;2023-12-20T12:41:24;857.55;;;806.60;;
7239;SDS011;3661;53.288;10.458;2023-12-20T12:43:56;892.27;;;841.63;;
7239;SDS011;3661;53.288;10.458;2023-12-20T12:46:28;897.38;;;847.08;;
7239;SDS011;3661;53.288;10.458;2023-12-20T12:49:02;888.53;;;838.05;;
7239;SDS011;3661;53.288;10.458;2023-12-20T12:51:34;881.28;;;830.97;;
7239;SDS011;3661;53.288;10.458;2023-12-20T12:54:06;888.08;;;837.88;;
7239;SDS011;3661;53.288;10.458;2023-12-20T12:56:39;905.13;;;853.72;;
7239;SDS011;3661;53.288;10.458;2023-12-20T12:59:11;875.42;;;825.42;;
7239;SDS011;3661;53.288;10.458;2023-12-20T13:01:43;873.40;;;823.70;;
7239;SDS011;3661;53.288;10.458;2023-12-20T13:04:16;879.08;;;828.35;;
7239;SDS011;3661;53.288;10.458;2023-12-20T13:06:48;894.33;;;843.83;;
7239;SDS011;3661;53.288;10.458;2023-12-20T13:09:20;890.42;;;839.85;;
7239;SDS011;3661;53.288;10.458;2023-12-20T13:11:52;883.13;;;832.38;;
7239;SDS011;3661;53.288;10.458;2023-12-20T13:14:24;896.70;;;845.92;;
7239;SDS011;3661;53.288;10.458;2023-12-20T13:16:58;877.13;;;827.40;;
7239;SDS011;3661;53.288;10.458;2023-12-20T13:19:31;885.00;;;834.40;;
7239;SDS011;3661;53.288;10.458;2023-12-20T13:22:03;889.17;;;839.53;;
7239;SDS011;3661;53.288;10.458;2023-12-20T13:24:36;887.83;;;837.08;;
7239;SDS011;3661;53.288;10.458;2023-12-20T13:27:08;888.13;;;838.47;;
7239;SDS011;3661;53.288;10.458;2023-12-20T13:29:40;865.30;;;815.88;;
7239;SDS011;3661;53.288;10.458;2023-12-20T13:32:12;900.85;;;849.97;;
7239;SDS011;3661;53.288;10.458;2023-12-20T13:34:45;873.67;;;823.28;;
7239;SDS011;3661;53.288;10.458;2023-12-20T13:37:18;885.63;;;835.20;;
7239;SDS011;3661;53.288;10.458;2023-12-20T13:39:51;902.25;;;851.65;;
7239;SDS011;3661;53.288;10.458;2023-12-20T13:42:23;892.58;;;842.33;;
7239;SDS011;3661;53.288;10.458;2023-12-20T13:44:57;877.58;;;827.45;;
7239;SDS011;3661;53.288;10.458;2023-12-20T13:47:29;895.55;;;844.65;;
7239;SDS011;3661;53.288;10.458;2023-12-20T13:50:03;892.67;;;842.22;;
7239;SDS011;3661;53.288;10.458;2023-12-20T13:52:36;891.05;;;840.97;;
7239;SDS011;3661;53.288;10.458;2023-12-20T13:55:09;893.55;;;842.33;;
7239;SDS011;3661;53.288;10.458;2023-12-20T13:57:41;890.60;;;840.40;;
7239;SDS011;3661;53.288;10.458;2023-12-20T14:00:13;898.75;;;848.08;;
7239;SDS011;3661;53.288;10.458;2023-12-20T14:02:46;876.90;;;825.75;;
7239;SDS011;3661;53.288;10.458;2023-12-20T14:05:20;877.63;;;827.50;;
7239;SDS011;3661;53.288;10.458;2023-12-20T14:07:53;895.55;;;844.63;;
7239;SDS011;3661;53.288;10.458;2023-12-20T14:10:27;865.92;;;816.15;;
7239;SDS011;3661;53.288;10.458;2023-12-20T14:13:00;886.77;;;836.13;;
7239;SDS011;3661;53.288;10.458;2023-12-20T14:15:32;881.83;;;831.58;;
7239;SDS011;3661;53.288;10.458;2023-12-20T14:18:07;882.72;;;832.40;;
7239;SDS011;3661;53.288;10.458;2023-12-20T14:20:40;879.67;;;829.90;;
7239;SDS011;3661;53.288;10.458;2023-12-20T14:23:12;865.35;;;815.95;;
7239;SDS011;3661;53.288;10.458;2023-12-20T14:25:45;884.97;;;834.67;;
7239;SDS011;3661;53.288;10.458;2023-12-20T14:28:18;863.88;;;813.15;;
7239;SDS011;3661;53.288;10.458;2023-12-20T14:30:50;871.97;;;821.93;;
7239;SDS011;3661;53.288;10.458;2023-12-20T14:33:23;869.25;;;820.45;;
7239;SDS011;3661;53.288;10.458;2023-12-20T14:35:57;843.03;;;792.78;;
7239;SDS011;3661;53.288;10.458;2023-12-20T14:38:30;832.13;;;782.60;;
7239;SDS011;3661;53.288;10.458;2023-12-20T14:41:03;855.72;;;806.50;;